createdAt,value
2019-04-10T00:01:12.061Z,13.28
2019-04-10T00:03:44.013Z,15.10
2019-04-10T00:06:18.568Z,14.68
2019-04-10T00:08:50.692Z,15.08
2019-04-10T00:11:22.849Z,16.40
2019-04-10T00:13:55.347Z,17.60
2019-04-10T00:16:27.788Z,14.93
2019-04-10T00:18:59.394Z,16.20
2019-04-10T00:21:31.447Z,15.47
2019-04-10T00:24:03.882Z,14.25
2019-04-10T00:26:35.662Z,12.80
2019-04-10T00:29:07.772Z,14.47
2019-04-10T00:31:40.230Z,13.28
2019-04-10T00:34:13.527Z,12.40
2019-04-10T00:36:45.623Z,11.08
2019-04-10T00:39:18.069Z,13.30
2019-04-10T00:41:49.635Z,12.37
2019-04-10T00:44:21.680Z,13.10
2019-04-10T00:46:53.433Z,14.55
2019-04-10T00:49:26.014Z,12.65
2019-04-10T00:54:29.726Z,12.73
2019-04-10T00:57:01.176Z,12.78
2019-04-10T00:59:34.465Z,11.00
2019-04-10T01:04:38.193Z,10.65
2019-04-10T01:07:10.686Z,12.20
2019-04-10T01:09:42.539Z,11.50
2019-04-10T01:12:14.233Z,11.83
2019-04-10T01:14:46.284Z,13.20
2019-04-10T01:17:17.878Z,13.18
2019-04-10T01:19:50.263Z,12.67
2019-04-10T01:24:54.342Z,13.03
2019-04-10T01:27:26.236Z,12.45
2019-04-10T01:29:58.642Z,14.98
2019-04-10T01:32:30.445Z,13.32
2019-04-10T01:35:02.511Z,12.05
2019-04-10T01:37:46.897Z,12.18
2019-04-10T01:40:09.012Z,12.00
2019-04-10T01:42:40.837Z,12.45
2019-04-10T01:45:13.301Z,15.55
2019-04-10T01:50:16.023Z,15.85
2019-04-10T01:52:47.800Z,15.32
2019-04-10T01:55:26.595Z,12.80
2019-04-10T01:57:54.692Z,12.25
2019-04-10T02:00:28.093Z,13.70
2019-04-10T02:02:59.757Z,10.55
2019-04-10T02:05:32.567Z,15.38
2019-04-10T02:08:10.023Z,12.88
2019-04-10T02:10:38.407Z,11.80
2019-04-10T02:13:09.973Z,12.07
2019-04-10T02:15:41.945Z,13.35
2019-04-10T02:18:13.549Z,12.68
2019-04-10T02:20:45.637Z,14.05
2019-04-10T02:23:19.129Z,11.75
2019-04-10T02:25:50.623Z,13.25
2019-04-10T02:28:22.773Z,12.35
2019-04-10T02:30:56.520Z,13.68
2019-04-10T02:33:29.354Z,11.88
2019-04-10T02:36:01.588Z,12.82
2019-04-10T02:41:08.168Z,12.98
2019-04-10T02:43:39.918Z,13.48
2019-04-10T02:46:13.220Z,13.62
2019-04-10T02:48:45.344Z,13.38
2019-04-10T02:51:17.641Z,15.18
2019-04-10T02:53:50.178Z,14.85
2019-04-10T02:56:23.844Z,14.28
2019-04-10T02:58:56.708Z,14.75
2019-04-10T03:01:29.624Z,14.00
2019-04-10T03:04:01.521Z,13.18
2019-04-10T03:06:33.643Z,14.50
2019-04-10T03:09:24.154Z,14.23
2019-04-10T03:11:41.991Z,14.60
2019-04-10T03:14:14.784Z,13.18
2019-04-10T03:19:19.121Z,11.75
2019-04-10T03:21:51.374Z,13.85
2019-04-10T03:24:23.325Z,14.03
2019-04-10T03:26:54.939Z,13.65
2019-04-10T03:29:27.427Z,13.40
2019-04-10T03:32:02.070Z,13.08
2019-04-10T03:34:38.857Z,12.80
2019-04-10T03:37:08.259Z,12.75
2019-04-10T03:39:40.571Z,13.95
2019-04-10T03:42:12.696Z,13.18
2019-04-10T03:44:45.206Z,12.28
2019-04-10T03:47:17.497Z,13.00
2019-04-10T03:52:21.501Z,11.07
2019-04-10T03:54:54.512Z,11.95
2019-04-10T03:57:26.802Z,13.13
2019-04-10T03:59:58.659Z,11.55
2019-04-10T04:02:31.578Z,12.37
2019-04-10T04:05:04.390Z,14.03
2019-04-10T04:07:36.795Z,13.18
2019-04-10T04:12:41.060Z,12.73
2019-04-10T04:15:13.596Z,13.28
2019-04-10T04:20:16.937Z,12.33
2019-04-10T04:22:49.490Z,12.65
2019-04-10T04:25:21.892Z,12.78
2019-04-10T04:27:53.922Z,12.37
2019-04-10T04:30:25.820Z,11.35
2019-04-10T04:32:58.040Z,11.78
2019-04-10T04:38:02.582Z,12.47
2019-04-10T04:40:35.672Z,11.75
2019-04-10T04:43:07.892Z,12.10
2019-04-10T04:45:40.093Z,12.13
2019-04-10T04:48:11.835Z,12.80
2019-04-10T04:50:43.975Z,12.70
2019-04-10T04:55:47.838Z,11.55
2019-04-10T04:58:20.286Z,11.65
2019-04-10T05:00:52.400Z,12.65
2019-04-10T05:03:25.576Z,11.20
2019-04-10T05:05:58.221Z,9.95
2019-04-10T05:08:30.280Z,10.50
2019-04-10T05:13:34.787Z,10.28
2019-04-10T05:16:07.949Z,9.80
2019-04-10T05:18:39.868Z,9.95
2019-04-10T05:21:12.719Z,8.88
2019-04-10T05:23:44.598Z,9.08
2019-04-10T05:26:16.612Z,10.32
2019-04-10T05:28:48.634Z,9.65
2019-04-10T05:31:21.474Z,8.90
2019-04-10T05:33:53.347Z,8.80
2019-04-10T05:36:25.665Z,7.67
2019-04-10T05:41:29.372Z,8.93
2019-04-10T05:44:01.202Z,8.23
2019-04-10T05:46:32.988Z,9.23
2019-04-10T05:49:04.553Z,8.80
2019-04-10T05:51:37.471Z,10.03
2019-04-10T05:54:08.947Z,9.53
2019-04-10T05:56:41.149Z,8.90
2019-04-10T05:59:13.594Z,9.40
2019-04-10T06:01:46.272Z,8.43
2019-04-10T06:04:18.969Z,8.95
2019-04-10T06:06:50.711Z,8.78
2019-04-10T06:11:55.296Z,9.50
2019-04-10T06:14:28.185Z,9.53
2019-04-10T06:17:03.659Z,9.10
2019-04-10T06:19:34.291Z,8.53
2019-04-10T06:22:06.207Z,9.25
2019-04-10T06:24:38.468Z,10.95
2019-04-10T06:27:10.396Z,9.93
2019-04-10T06:29:44.566Z,10.43
2019-04-10T06:32:15.615Z,10.20
2019-04-10T06:34:48.215Z,9.55
2019-04-10T06:37:19.878Z,10.60
2019-04-10T06:40:03.668Z,12.28
2019-04-10T06:42:26.575Z,12.13
2019-04-10T06:44:59.032Z,12.58
2019-04-10T06:50:02.633Z,10.65
2019-04-10T06:52:34.583Z,11.20
2019-04-10T06:55:07.288Z,10.72
2019-04-10T06:57:46.808Z,9.13
2019-04-10T07:00:16.612Z,10.08
2019-04-10T07:02:48.438Z,10.65
2019-04-10T07:07:56.658Z,10.55
2019-04-10T07:10:30.763Z,9.90
2019-04-10T07:12:59.568Z,9.68
2019-04-10T07:15:31.554Z,9.65
2019-04-10T07:18:03.104Z,9.50
2019-04-10T07:20:35.917Z,10.50
2019-04-10T07:23:08.073Z,9.65
2019-04-10T07:25:42.461Z,8.78
2019-04-10T07:28:13.730Z,8.78
2019-04-10T07:30:45.661Z,8.28
2019-04-10T07:33:19.430Z,8.83
2019-04-10T07:35:54.599Z,7.90
2019-04-10T07:38:24.762Z,7.00
2019-04-10T07:40:56.892Z,8.43
2019-04-10T07:43:29.497Z,8.80
2019-04-10T07:46:02.381Z,8.30
2019-04-10T07:48:34.033Z,9.20
2019-04-10T07:51:06.998Z,8.18
2019-04-10T07:53:39.582Z,7.62
2019-04-10T07:56:17.346Z,6.90
2019-04-10T07:58:46.005Z,6.92
2019-04-10T08:01:18.261Z,6.90
2019-04-10T08:03:52.214Z,6.50
2019-04-10T08:06:23.498Z,6.53
2019-04-10T08:08:56.286Z,4.90
2019-04-10T08:11:29.530Z,5.37
2019-04-10T08:14:01.803Z,6.08
2019-04-10T08:16:33.348Z,5.45
2019-04-10T08:19:06.278Z,6.83
2019-04-10T08:21:38.101Z,6.35
2019-04-10T08:24:09.897Z,5.65
2019-04-10T08:26:42.977Z,5.62
2019-04-10T08:29:14.650Z,5.75
2019-04-10T08:31:46.295Z,5.28
2019-04-10T08:34:19.401Z,7.25
2019-04-10T08:36:53.847Z,5.45
2019-04-10T08:39:33.983Z,6.12
2019-04-10T08:42:00.010Z,6.35
2019-04-10T08:44:32.260Z,6.28
2019-04-10T08:47:03.702Z,6.00
2019-04-10T08:49:35.482Z,4.75
2019-04-10T08:52:08.236Z,4.25
2019-04-10T08:54:40.502Z,4.10
2019-04-10T08:57:12.208Z,5.30
2019-04-10T08:59:45.320Z,5.55
2019-04-10T09:02:18.016Z,4.67
2019-04-10T09:04:49.959Z,5.50
2019-04-10T09:07:22.218Z,4.50
2019-04-10T09:09:54.256Z,4.97
2019-04-10T09:12:26.126Z,6.37
2019-04-10T09:14:59.239Z,6.65
2019-04-10T09:17:33.341Z,5.83
2019-04-10T09:20:08.809Z,5.45
2019-04-10T09:22:57.934Z,5.45
2019-04-10T09:25:13.839Z,4.67
2019-04-10T09:27:46.314Z,5.08
2019-04-10T09:30:18.445Z,4.70
2019-04-10T09:35:22.537Z,6.13
2019-04-10T09:37:54.597Z,4.72
2019-04-10T09:40:27.966Z,4.58
2019-04-10T09:45:31.452Z,4.37
2019-04-10T09:48:04.274Z,4.97
2019-04-10T09:50:36.816Z,4.53
2019-04-10T09:53:08.791Z,4.28
2019-04-10T09:58:13.301Z,4.87
2019-04-10T10:00:45.848Z,4.17
2019-04-10T10:03:17.955Z,4.40
2019-04-10T10:05:51.306Z,4.60
2019-04-10T10:08:22.931Z,4.37
2019-04-10T10:10:55.566Z,4.72
2019-04-10T10:13:27.748Z,4.70
2019-04-10T10:16:00.751Z,4.40
2019-04-10T10:18:33.167Z,5.05
2019-04-10T10:23:36.120Z,4.62
2019-04-10T10:26:07.991Z,4.55
2019-04-10T10:28:39.714Z,4.83
2019-04-10T10:31:11.649Z,5.20
2019-04-10T10:33:43.312Z,3.90
2019-04-10T10:36:15.856Z,4.25
2019-04-10T10:38:47.542Z,5.47
2019-04-10T10:41:20.227Z,5.12
2019-04-10T10:43:52.975Z,4.75
2019-04-10T10:46:25.173Z,4.05
2019-04-10T10:48:57.971Z,4.53
2019-04-10T10:51:30.830Z,4.12
2019-04-10T10:54:03.103Z,3.98
2019-04-10T10:56:36.329Z,3.62
2019-04-10T10:59:07.889Z,4.53
2019-04-10T11:01:40.021Z,4.80
2019-04-10T11:04:11.507Z,5.12
2019-04-10T11:06:55.337Z,4.55
2019-04-10T11:09:18.191Z,5.00
2019-04-10T11:11:49.816Z,5.50
2019-04-10T11:14:21.619Z,4.87
2019-04-10T11:16:56.119Z,4.80
2019-04-10T11:19:29.117Z,4.78
2019-04-10T11:22:01.016Z,4.72
2019-04-10T11:24:33.248Z,4.60
2019-04-10T11:27:06.617Z,4.60
2019-04-10T11:29:39.017Z,4.75
2019-04-10T11:34:43.252Z,5.40
2019-04-10T11:37:24.151Z,4.60
2019-04-10T11:39:50.922Z,5.40
2019-04-10T11:42:23.527Z,4.75
2019-04-10T11:44:55.520Z,5.03
2019-04-10T11:50:00.906Z,5.40
2019-04-10T11:52:39.653Z,5.05
2019-04-10T11:55:13.703Z,5.35
2019-04-10T11:57:41.978Z,5.35
2019-04-10T12:00:19.616Z,5.15
2019-04-10T12:02:52.760Z,4.37
2019-04-10T12:05:26.859Z,5.20
2019-04-10T12:08:22.093Z,4.05
2019-04-10T12:13:05.980Z,4.70
2019-04-10T12:15:39.212Z,4.85
2019-04-10T12:18:11.447Z,5.17
2019-04-10T12:20:43.160Z,4.85
2019-04-10T12:23:16.762Z,5.55
2019-04-10T12:25:49.387Z,4.55
2019-04-10T12:28:22.087Z,5.50
2019-04-10T12:30:53.663Z,5.03
2019-04-10T12:33:25.526Z,4.78
2019-04-10T12:35:58.191Z,4.42
2019-04-10T12:38:29.992Z,4.12
2019-04-10T12:41:01.502Z,5.05
2019-04-10T12:43:33.466Z,4.53
2019-04-10T12:46:05.544Z,4.30
2019-04-10T12:48:38.801Z,5.10
2019-04-10T12:51:11.864Z,4.83
2019-04-10T12:53:43.635Z,4.80
2019-04-10T12:56:15.773Z,4.75
2019-04-10T12:58:47.410Z,5.08
2019-04-10T13:01:19.060Z,5.20
2019-04-10T13:03:51.526Z,4.85
2019-04-10T13:06:24.177Z,5.22
2019-04-10T13:09:05.652Z,5.50
2019-04-10T13:11:30.169Z,4.67
2019-04-10T13:14:02.216Z,4.83
2019-04-10T13:16:34.258Z,4.30
2019-04-10T13:19:06.964Z,4.97
2019-04-10T13:21:38.955Z,4.17
2019-04-10T13:24:11.112Z,4.92
2019-04-10T13:26:42.888Z,4.50
2019-04-10T13:29:14.762Z,4.28
2019-04-10T13:31:46.745Z,4.92
2019-04-10T13:34:19.655Z,4.28
2019-04-10T13:36:51.651Z,4.25
2019-04-10T13:39:24.446Z,4.47
2019-04-10T13:41:56.731Z,4.78
2019-04-10T13:44:30.722Z,4.67
2019-04-10T13:47:02.691Z,4.65
2019-04-10T13:49:34.531Z,4.37
2019-04-10T13:54:37.353Z,4.08
2019-04-10T13:57:09.824Z,4.90
2019-04-10T13:59:41.774Z,4.17
2019-04-10T14:02:17.321Z,5.15
2019-04-10T14:04:49.436Z,5.65
2019-04-10T14:07:22.119Z,5.80
2019-04-10T14:09:54.480Z,5.22
2019-04-10T14:12:27.082Z,4.60
2019-04-10T14:15:01.544Z,5.10
2019-04-10T14:17:33.719Z,4.60
2019-04-10T14:20:07.583Z,4.72
2019-04-10T14:22:41.964Z,5.67
2019-04-10T14:25:15.631Z,3.65
2019-04-10T14:27:47.362Z,3.27
2019-04-10T14:30:29.726Z,2.45
2019-04-10T14:33:01.422Z,2.47
2019-04-10T14:35:33.620Z,3.00
2019-04-10T14:38:06.557Z,4.30
2019-04-10T14:40:39.897Z,4.30
2019-04-10T14:43:12.441Z,7.15
2019-04-10T14:48:16.107Z,5.33
2019-04-10T14:50:47.904Z,5.95
2019-04-10T14:53:20.149Z,5.90
2019-04-10T14:55:51.717Z,5.15
2019-04-10T14:58:28.181Z,3.95
2019-04-10T15:00:57.936Z,4.75
2019-04-10T15:03:30.678Z,4.37
2019-04-10T15:06:02.628Z,4.22
2019-04-10T15:08:35.603Z,4.42
2019-04-10T15:11:08.683Z,4.95
2019-04-10T15:13:40.898Z,6.10
2019-04-10T15:16:12.886Z,5.37
2019-04-10T15:18:45.836Z,5.30
2019-04-10T15:21:18.594Z,5.33
2019-04-10T15:23:51.071Z,4.60
2019-04-10T15:26:23.928Z,4.87
2019-04-10T15:28:56.317Z,4.35
2019-04-10T15:31:29.075Z,4.50
2019-04-10T15:34:01.602Z,4.90
2019-04-10T15:36:33.944Z,5.72
2019-04-10T15:39:08.695Z,5.87
2019-04-10T15:41:41.308Z,5.55
2019-04-10T15:44:14.084Z,6.65
2019-04-10T15:46:46.470Z,11.33
2019-04-10T15:49:19.406Z,11.88
2019-04-10T15:51:51.052Z,10.82
2019-04-10T15:54:23.652Z,9.60
2019-04-10T15:59:26.792Z,10.32
2019-04-10T16:01:59.370Z,11.95
2019-04-10T16:04:31.668Z,15.28
2019-04-10T16:07:04.143Z,15.25
2019-04-10T16:09:46.409Z,13.60
2019-04-10T16:12:16.912Z,12.85
2019-04-10T16:14:50.669Z,12.18
2019-04-10T16:17:44.382Z,13.80
2019-04-10T16:20:21.744Z,14.15
2019-04-10T16:22:55.001Z,9.95
2019-04-10T16:25:30.156Z,10.03
2019-04-10T16:28:02.575Z,14.03
2019-04-10T16:30:34.924Z,9.73
2019-04-10T16:33:07.148Z,12.60
2019-04-10T16:35:40.091Z,7.33
2019-04-10T16:38:12.129Z,7.17
2019-04-10T16:40:44.027Z,5.97
2019-04-10T16:43:16.046Z,6.83
2019-04-10T16:45:48.986Z,8.43
2019-04-10T16:48:21.005Z,8.25
2019-04-10T16:50:53.970Z,10.13
2019-04-10T16:53:25.782Z,6.35
2019-04-10T16:55:59.042Z,5.25
2019-04-10T16:58:32.020Z,5.40
2019-04-10T17:01:04.414Z,5.75
2019-04-10T17:06:08.245Z,7.22
2019-04-10T17:08:40.465Z,5.70
2019-04-10T17:13:44.156Z,5.55
2019-04-10T17:16:17.647Z,6.22
2019-04-10T17:18:49.626Z,6.20
2019-04-10T17:21:21.519Z,5.92
2019-04-10T17:23:53.276Z,5.95
2019-04-10T17:26:26.599Z,9.00
2019-04-10T17:28:58.847Z,6.22
2019-04-10T17:31:30.858Z,5.58
2019-04-10T17:34:02.973Z,11.10
2019-04-10T17:36:34.855Z,6.70
2019-04-10T17:39:11.234Z,7.53
2019-04-10T17:41:43.890Z,6.05
2019-04-10T17:44:17.977Z,6.33
2019-04-10T17:46:51.265Z,6.40
2019-04-10T17:49:23.483Z,7.47
2019-04-10T17:51:54.958Z,6.60
2019-04-10T17:54:28.527Z,7.62
2019-04-10T17:57:00.985Z,6.53
2019-04-10T17:59:32.667Z,7.10
2019-04-10T18:02:07.401Z,7.65
2019-04-10T18:04:40.081Z,8.53
2019-04-10T18:07:12.157Z,6.67
2019-04-10T18:09:43.814Z,7.20
2019-04-10T18:12:16.292Z,7.45
2019-04-10T18:14:49.210Z,7.78
2019-04-10T18:17:21.221Z,7.72
2019-04-10T18:19:52.725Z,7.55
2019-04-10T18:22:24.826Z,8.55
2019-04-10T18:24:56.507Z,7.78
2019-04-10T18:27:28.276Z,9.90
2019-04-10T18:29:59.922Z,8.28
2019-04-10T18:32:31.884Z,9.75
2019-04-10T18:35:04.618Z,9.63
2019-04-10T18:37:37.066Z,9.45
2019-04-10T18:42:40.145Z,7.90
2019-04-10T18:45:13.327Z,8.15
2019-04-10T18:47:46.097Z,7.92
2019-04-10T18:50:18.315Z,8.15
2019-04-10T18:52:49.976Z,8.45
2019-04-10T18:55:22.582Z,13.13
2019-04-10T18:57:54.919Z,9.00
2019-04-10T19:00:43.759Z,8.25
2019-04-10T19:03:17.849Z,9.63
2019-04-10T19:06:08.304Z,9.50
2019-04-10T19:08:39.852Z,11.03
2019-04-10T19:11:21.117Z,10.05
2019-04-10T19:13:47.248Z,10.10
2019-04-10T19:16:21.416Z,12.13
2019-04-10T19:18:53.778Z,11.57
2019-04-10T19:21:27.245Z,9.08
2019-04-10T19:23:59.159Z,9.98
2019-04-10T19:26:31.495Z,11.63
2019-04-10T19:29:03.392Z,9.43
2019-04-10T19:31:38.533Z,10.68
2019-04-10T19:34:10.225Z,10.13
2019-04-10T19:36:43.883Z,10.90
2019-04-10T19:39:16.091Z,11.55
2019-04-10T19:41:49.107Z,11.97
2019-04-10T19:44:21.199Z,11.38
2019-04-10T19:46:53.659Z,11.83
2019-04-10T19:49:25.260Z,11.20
2019-04-10T19:51:58.126Z,10.90
2019-04-10T19:54:30.221Z,11.80
2019-04-10T19:57:04.539Z,11.38
2019-04-10T19:59:36.327Z,10.60
2019-04-10T20:02:08.844Z,11.18
2019-04-10T20:07:13.176Z,11.10
2019-04-10T20:09:46.241Z,9.98
2019-04-10T20:12:18.202Z,10.98
2019-04-10T20:14:50.642Z,10.58
2019-04-10T20:17:22.529Z,10.63
2019-04-10T20:19:56.718Z,10.72
2019-04-10T20:22:29.315Z,10.78
2019-04-10T20:25:02.154Z,11.05
2019-04-10T20:27:34.167Z,10.13
2019-04-10T20:30:09.907Z,11.48
2019-04-10T20:32:42.020Z,10.75
2019-04-10T20:35:14.058Z,10.88
2019-04-10T20:37:47.330Z,10.60
2019-04-10T20:40:20.758Z,12.50
2019-04-10T20:42:52.609Z,23.65
2019-04-10T20:45:25.313Z,25.57
2019-04-10T20:47:58.197Z,29.50
2019-04-10T20:50:30.113Z,28.05
2019-04-10T20:53:01.988Z,27.70
2019-04-10T20:55:35.558Z,25.68
2019-04-10T20:58:07.415Z,23.62
2019-04-10T21:00:41.248Z,21.12
2019-04-10T21:03:13.814Z,20.50
2019-04-10T21:05:46.690Z,18.80
2019-04-10T21:08:18.547Z,16.42
2019-04-10T21:10:51.370Z,15.45
2019-04-10T21:13:23.534Z,14.55
2019-04-10T21:15:55.634Z,13.35
2019-04-10T21:29:00.884Z,12.15
2019-04-10T21:31:50.677Z,11.43
2019-04-10T21:34:37.012Z,10.63
2019-04-10T21:37:09.959Z,10.90
2019-04-10T21:39:42.235Z,10.85
2019-04-10T21:42:21.210Z,10.83
2019-04-10T21:44:49.147Z,11.93
2019-04-10T21:47:21.788Z,10.90
2019-04-10T21:52:25.603Z,10.95
2019-04-10T21:55:00.493Z,11.65
2019-04-10T21:57:32.761Z,11.95
2019-04-10T22:00:10.069Z,11.70
2019-04-10T22:02:45.017Z,12.37
2019-04-10T22:05:17.111Z,12.00
2019-04-10T22:08:09.460Z,12.60
2019-04-10T22:10:46.145Z,12.50
2019-04-10T22:13:19.713Z,12.07
2019-04-10T22:15:51.986Z,12.10
2019-04-10T22:18:25.232Z,11.75
2019-04-10T22:20:58.567Z,10.78
2019-04-10T22:23:30.472Z,12.13
2019-04-10T22:26:02.286Z,12.35
2019-04-10T22:28:34.124Z,11.80
2019-04-10T22:31:06.105Z,11.80
2019-04-10T22:33:38.515Z,11.43
2019-04-10T22:36:10.798Z,12.43
2019-04-10T22:38:43.803Z,12.45
2019-04-10T22:41:23.613Z,13.20
2019-04-10T22:43:49.636Z,12.35
2019-04-10T22:46:21.561Z,12.90
2019-04-10T22:48:53.949Z,12.15
2019-04-10T22:51:26.917Z,12.30
2019-04-10T22:53:58.831Z,12.00
2019-04-10T22:56:31.558Z,13.80
2019-04-10T22:59:03.961Z,12.88
2019-04-10T23:01:35.819Z,13.40
2019-04-10T23:04:08.210Z,13.05
2019-04-10T23:09:12.343Z,13.22
2019-04-10T23:11:46.463Z,13.62
2019-04-10T23:14:18.524Z,13.78
2019-04-10T23:16:50.512Z,14.23
2019-04-10T23:19:22.676Z,14.25
2019-04-10T23:21:54.620Z,14.78
2019-04-10T23:24:27.741Z,14.75
2019-04-10T23:27:01.720Z,13.93
2019-04-10T23:29:33.839Z,14.23
2019-04-10T23:32:05.954Z,14.00
2019-04-10T23:34:38.918Z,14.87
2019-04-10T23:37:10.921Z,14.43
2019-04-10T23:39:43.836Z,15.65
2019-04-10T23:42:15.930Z,15.75
2019-04-10T23:44:47.781Z,15.63
2019-04-10T23:47:20.095Z,15.68
2019-04-10T23:49:52.066Z,16.82
2019-04-10T23:52:23.787Z,17.57
2019-04-10T23:54:55.855Z,16.95
2019-04-10T23:57:27.785Z,19.65
